Time;durP1;ratioP1;P1;durP2;ratioP2;P2;SDS_P1;SDS_P2;PMS_P1;PMS_P2;Temp;Humidity;BMP_temperature;BMP_pressure;BME280_temperature;BME280_humidity;BME280_pressure;Samples;Min_cycle;Max_cycle;Signal;HPM_P1;HPM_P2
2021/08/07 00:00:10;;;;;;;6.73;6.20;;;17.80;99.90;;;;;;4939536;29;20351;-70
2021/08/07 00:02:36;;;;;;;7.70;7.10;;;17.80;99.90;;;;;;4936778;28;20666;-69
2021/08/07 00:05:04;;;;;;;7.63;6.93;;;17.80;99.90;;;;;;4937329;28;20634;-69
2021/08/07 00:07:30;;;;;;;7.10;6.60;;;17.90;99.90;;;;;;4934322;28;20277;-70
2021/08/07 00:09:55;;;;;;;7.40;6.70;;;17.90;99.90;;;;;;4932935;28;20655;-69
2021/08/07 00:12:23;;;;;;;8.07;7.30;;;17.80;99.90;;;;;;4932088;28;20374;-70
2021/08/07 00:14:49;;;;;;;6.93;6.33;;;17.90;99.90;;;;;;4934823;29;20200;-69
2021/08/07 00:17:14;;;;;;;6.97;6.30;;;17.90;99.90;;;;;;4934344;28;20658;-69
2021/08/07 00:19:46;;;;;;;7.53;7.03;;;17.90;99.90;;;;;;4933063;29;20262;-69
2021/08/07 00:22:15;;;;;;;7.40;6.80;;;17.90;99.90;;;;;;4933919;28;20248;-69
2021/08/07 00:24:41;;;;;;;6.10;5.60;;;17.90;99.90;;;;;;4930120;28;20643;-70
2021/08/07 00:27:09;;;;;;;6.47;5.97;;;17.90;99.90;;;;;;4937898;28;20729;-69
2021/08/07 00:29:37;;;;;;;7.10;6.40;;;17.90;99.90;;;;;;4933130;28;20627;-70
2021/08/07 00:32:07;;;;;;;6.90;6.40;;;17.90;99.90;;;;;;4932128;28;20643;-71
2021/08/07 00:34:32;;;;;;;6.50;6.00;;;17.90;99.90;;;;;;4935378;28;20681;-69
2021/08/07 00:37:05;;;;;;;7.17;6.57;;;17.90;99.90;;;;;;4930074;29;20642;-69
2021/08/07 00:39:31;;;;;;;6.93;6.43;;;17.80;99.90;;;;;;4934100;28;20220;-69
2021/08/07 00:41:59;;;;;;;6.43;5.93;;;17.80;99.90;;;;;;4932928;28;20753;-69
2021/08/07 00:44:27;;;;;;;6.67;6.00;;;17.80;99.90;;;;;;4935430;29;20710;-69
2021/08/07 00:46:55;;;;;;;6.90;6.30;;;17.70;99.90;;;;;;4930540;28;20998;-69
2021/08/07 00:49:21;;;;;;;6.73;6.23;;;17.70;99.90;;;;;;4933691;29;20655;-69
2021/08/07 00:51:47;;;;;;;6.07;5.57;;;17.70;99.90;;;;;;4929387;28;20644;-69
2021/08/07 00:54:13;;;;;;;6.93;6.43;;;17.60;99.90;;;;;;4928985;28;20626;-69
2021/08/07 00:56:41;;;;;;;6.67;6.17;;;17.60;99.90;;;;;;4932391;28;20985;-70
2021/08/07 00:59:06;;;;;;;6.70;6.23;;;17.60;99.90;;;;;;4935379;28;20244;-69
2021/08/07 01:01:44;;;;;;;6.73;6.23;;;17.60;99.90;;;;;;4933114;28;20660;-69
2021/08/07 01:04:18;;;;;;;6.20;5.80;;;17.60;99.90;;;;;;4934545;28;20211;-69
2021/08/07 01:06:57;;;;;;;6.93;6.43;;;17.50;99.90;;;;;;4935405;28;20771;-69
2021/08/07 01:09:53;;;;;;;6.90;6.30;;;17.50;99.90;;;;;;4930451;28;20646;-70
2021/08/07 01:12:23;;;;;;;6.50;6.00;;;17.50;99.90;;;;;;4930252;28;20636;-69
2021/08/07 01:14:58;;;;;;;6.20;5.77;;;17.40;99.90;;;;;;4929319;28;21221;-69
2021/08/07 01:17:27;;;;;;;5.97;5.47;;;17.40;99.90;;;;;;4946012;28;20725;-69
2021/08/07 01:20:24;;;;;;;5.80;5.40;;;17.40;99.90;;;;;;4948687;29;21227;-69
2021/08/07 01:22:58;;;;;;;6.30;5.90;;;17.40;99.90;;;;;;4935974;28;20647;-69
2021/08/07 01:25:30;;;;;;;6.57;5.97;;;17.40;99.90;;;;;;4929141;28;20630;-69
2021/08/07 01:27:57;;;;;;;6.03;5.63;;;17.40;99.90;;;;;;4932297;28;20651;-69
2021/08/07 01:30:22;;;;;;;6.33;5.83;;;17.40;99.90;;;;;;4937660;29;20730;-70
2021/08/07 01:32:54;;;;;;;6.23;5.83;;;17.30;99.90;;;;;;4932448;28;21338;-69
2021/08/07 01:35:22;;;;;;;6.40;5.90;;;17.30;99.90;;;;;;4934778;29;20744;-69
2021/08/07 01:37:48;;;;;;;6.47;5.97;;;17.40;99.90;;;;;;4931769;28;20643;-69
2021/08/07 01:40:13;;;;;;;6.03;5.43;;;17.30;99.90;;;;;;4936456;29;20622;-69
2021/08/07 01:42:39;;;;;;;5.67;5.27;;;17.30;99.90;;;;;;4935453;28;20975;-69
2021/08/07 01:45:05;;;;;;;6.70;6.00;;;17.30;99.90;;;;;;4932924;28;20208;-69
2021/08/07 01:47:42;;;;;;;5.73;5.13;;;17.30;99.90;;;;;;4937585;28;20310;-69
2021/08/07 01:50:31;;;;;;;6.20;5.60;;;17.30;99.90;;;;;;4931084;29;20193;-69
2021/08/07 01:53:07;;;;;;;5.83;5.33;;;17.40;99.90;;;;;;4939605;28;21309;-70
2021/08/07 01:55:54;;;;;;;5.90;5.50;;;17.40;99.90;;;;;;4942083;28;20623;-69
2021/08/07 01:58:33;;;;;;;5.67;5.17;;;17.30;99.90;;;;;;4941229;28;20698;-69
2021/08/07 02:01:00;;;;;;;5.70;5.30;;;17.30;99.90;;;;;;4945690;28;20647;-69
2021/08/07 02:03:30;;;;;;;7.37;5.40;;;17.20;99.90;;;;;;4934008;28;20690;-69
2021/08/07 02:05:56;;;;;;;5.93;5.47;;;17.30;99.90;;;;;;4932976;29;20684;-69
2021/08/07 02:08:23;;;;;;;5.33;4.93;;;17.30;99.90;;;;;;4935262;28;21739;-69
2021/08/07 02:10:50;;;;;;;5.80;5.40;;;17.30;99.90;;;;;;4935724;29;20652;-69
2021/08/07 02:13:19;;;;;;;5.80;5.40;;;17.30;99.90;;;;;;4931294;29;20629;-69
2021/08/07 02:15:47;;;;;;;5.80;5.40;;;17.40;99.90;;;;;;4930338;28;20643;-69
2021/08/07 02:18:23;;;;;;;6.10;5.70;;;17.40;99.90;;;;;;4929919;28;20654;-69
2021/08/07 02:20:53;;;;;;;6.00;5.60;;;17.40;99.90;;;;;;4935506;29;20611;-69
2021/08/07 02:23:20;;;;;;;5.90;5.40;;;17.40;99.90;;;;;;4934790;28;21247;-69
2021/08/07 02:25:52;;;;;;;5.60;5.20;;;17.40;99.90;;;;;;4943297;29;20751;-69
2021/08/07 02:28:20;;;;;;;5.70;5.30;;;17.30;99.90;;;;;;4941319;28;20754;-69
2021/08/07 02:30:46;;;;;;;6.03;5.53;;;17.40;99.90;;;;;;4934972;28;21015;-69
2021/08/07 02:33:12;;;;;;;6.00;5.20;;;17.30;99.90;;;;;;4931878;28;20636;-69
2021/08/07 02:35:38;;;;;;;6.03;5.63;;;17.30;99.90;;;;;;4932411;29;20623;-69
2021/08/07 02:38:04;;;;;;;6.00;5.53;;;17.30;99.90;;;;;;4938992;28;20755;-69
2021/08/07 02:40:31;;;;;;;5.87;5.47;;;17.30;99.90;;;;;;4936656;29;20746;-70
2021/08/07 02:42:58;;;;;;;6.40;5.80;;;17.30;99.90;;;;;;4931918;28;20683;-69
2021/08/07 02:45:25;;;;;;;5.73;5.30;;;17.30;99.90;;;;;;4937356;29;21045;-69
2021/08/07 02:47:53;;;;;;;6.23;5.73;;;17.20;99.90;;;;;;4936319;28;20660;-70
2021/08/07 02:50:19;;;;;;;5.93;5.40;;;17.30;99.90;;;;;;4937629;29;20616;-69
2021/08/07 02:52:46;;;;;;;5.60;5.10;;;17.30;99.90;;;;;;4934356;28;21207;-69
2021/08/07 02:55:11;;;;;;;6.27;5.67;;;17.30;99.90;;;;;;4936356;28;21177;-69
2021/08/07 02:57:39;;;;;;;5.73;5.23;;;17.30;99.90;;;;;;4938423;28;20611;-69
2021/08/07 03:00:08;;;;;;;6.17;5.57;;;17.30;99.90;;;;;;4934192;28;20194;-69
2021/08/07 03:02:36;;;;;;;6.37;5.80;;;17.30;99.90;;;;;;4933850;28;22777;-69
2021/08/07 03:05:10;;;;;;;6.10;5.60;;;17.30;99.90;;;;;;4939796;28;20691;-69
2021/08/07 03:07:36;;;;;;;6.93;6.23;;;17.30;99.90;;;;;;4933586;28;21244;-69
2021/08/07 03:10:05;;;;;;;6.60;6.00;;;17.40;99.90;;;;;;4939165;28;20610;-69
2021/08/07 03:12:31;;;;;;;6.27;5.63;;;17.40;99.90;;;;;;4937885;28;21261;-69
2021/08/07 03:14:56;;;;;;;7.17;6.57;;;17.40;99.90;;;;;;4935123;28;20658;-69
2021/08/07 03:17:24;;;;;;;6.13;5.67;;;17.40;99.90;;;;;;4934190;28;21248;-69
2021/08/07 03:19:52;;;;;;;6.27;5.77;;;17.40;99.90;;;;;;4938989;28;20256;-69
2021/08/07 03:22:17;;;;;;;6.13;5.60;;;17.30;99.90;;;;;;4937933;28;20742;-69
2021/08/07 03:24:44;;;;;;;6.20;5.80;;;17.30;99.90;;;;;;4937570;28;20790;-69
2021/08/07 03:27:10;;;;;;;6.90;6.40;;;17.30;99.90;;;;;;4933727;28;20267;-69
2021/08/07 03:29:36;;;;;;;6.73;6.13;;;17.30;99.90;;;;;;4942015;28;21419;-69
2021/08/07 03:32:05;;;;;;;6.17;5.77;;;17.30;99.90;;;;;;4932989;28;20642;-69
2021/08/07 03:34:32;;;;;;;6.37;5.87;;;17.30;99.90;;;;;;4941786;28;20226;-69
2021/08/07 03:37:00;;;;;;;5.37;4.87;;;17.30;99.90;;;;;;4940442;28;21324;-69
2021/08/07 03:39:26;;;;;;;6.10;5.70;;;17.30;99.90;;;;;;4936062;28;21023;-69
2021/08/07 03:41:53;;;;;;;7.60;5.97;;;17.30;99.90;;;;;;4933402;28;20750;-69
2021/08/07 03:44:19;;;;;;;6.37;5.77;;;17.30;99.90;;;;;;4931757;28;20203;-69
2021/08/07 03:46:47;;;;;;;5.60;5.20;;;17.30;99.90;;;;;;4938043;29;20635;-69
2021/08/07 03:49:12;;;;;;;6.30;5.80;;;17.30;99.90;;;;;;4935808;28;20212;-69
2021/08/07 03:51:41;;;;;;;6.47;5.97;;;17.30;99.90;;;;;;4937070;28;20647;-69
2021/08/07 03:54:09;;;;;;;5.53;5.13;;;17.20;99.90;;;;;;4937057;29;20195;-69
2021/08/07 03:56:35;;;;;;;5.87;5.37;;;17.20;99.90;;;;;;4934465;29;20638;-69
2021/08/07 03:59:03;;;;;;;6.10;5.50;;;17.20;99.90;;;;;;4932292;28;20681;-69
2021/08/07 04:01:28;;;;;;;6.70;6.10;;;17.20;99.90;;;;;;4934946;28;20327;-69
2021/08/07 04:03:54;;;;;;;6.50;6.00;;;17.20;99.90;;;;;;4937919;29;20634;-69
2021/08/07 04:06:19;;;;;;;7.17;6.57;;;17.20;99.90;;;;;;4937927;28;20258;-69
2021/08/07 04:08:45;;;;;;;6.63;6.03;;;17.20;99.90;;;;;;4931965;28;20215;-69
2021/08/07 04:11:10;;;;;;;6.13;5.70;;;17.20;99.90;;;;;;4939660;29;20644;-70
2021/08/07 04:13:36;;;;;;;7.07;6.50;;;17.20;99.90;;;;;;4937781;28;20231;-69
2021/08/07 04:16:02;;;;;;;6.80;6.30;;;17.20;99.90;;;;;;4934953;28;20214;-69
2021/08/07 04:18:33;;;;;;;7.20;6.60;;;17.20;99.90;;;;;;4933519;28;20219;-69
2021/08/07 04:21:01;;;;;;;7.40;6.70;;;17.20;99.90;;;;;;4931331;28;20760;-69
2021/08/07 04:23:26;;;;;;;6.93;6.40;;;17.20;99.90;;;;;;4938636;28;20722;-69
2021/08/07 04:25:52;;;;;;;6.50;6.00;;;17.20;99.90;;;;;;4950872;28;20805;-69
2021/08/07 04:28:17;;;;;;;7.50;6.83;;;17.20;99.90;;;;;;4924863;28;20254;-69
2021/08/07 04:30:44;;;;;;;7.83;7.13;;;17.20;99.90;;;;;;4930790;29;20209;-70
2021/08/07 04:33:10;;;;;;;6.90;6.30;;;17.20;99.90;;;;;;4932781;28;20692;-70
2021/08/07 04:35:43;;;;;;;6.53;5.93;;;17.20;99.90;;;;;;4933557;29;20723;-70
2021/08/07 04:38:14;;;;;;;7.20;6.40;;;17.20;99.90;;;;;;4933630;28;20215;-70
2021/08/07 04:40:40;;;;;;;7.03;6.43;;;17.20;99.90;;;;;;4931872;28;20619;-70
2021/08/07 04:43:05;;;;;;;8.47;7.77;;;17.20;99.90;;;;;;4929826;28;22147;-70
2021/08/07 04:45:36;;;;;;;7.00;6.50;;;17.20;99.90;;;;;;4928760;29;20200;-69
2021/08/07 04:48:10;;;;;;;8.20;7.60;;;17.20;99.90;;;;;;4935614;28;20209;-69
2021/08/07 04:50:36;;;;;;;7.70;7.10;;;17.20;99.90;;;;;;4935248;28;21006;-70
2021/08/07 04:53:02;;;;;;;7.80;7.20;;;17.30;99.90;;;;;;4929114;28;20635;-70
2021/08/07 04:55:30;;;;;;;8.63;7.93;;;17.30;99.90;;;;;;4945402;28;20210;-70
2021/08/07 04:57:56;;;;;;;9.17;8.30;;;17.30;99.90;;;;;;4950524;28;20932;-70
2021/08/07 05:00:24;;;;;;;10.57;8.73;;;17.30;99.90;;;;;;4936608;29;20682;-70
2021/08/07 05:02:49;;;;;;;9.80;8.90;;;17.30;99.90;;;;;;4933847;28;20234;-70
2021/08/07 05:05:16;;;;;;;8.70;7.90;;;17.40;99.90;;;;;;4933498;29;21001;-69
2021/08/07 05:07:43;;;;;;;9.20;8.40;;;17.40;99.90;;;;;;4930475;28;20203;-70
2021/08/07 05:10:13;;;;;;;9.20;8.50;;;17.40;99.90;;;;;;4931815;29;20623;-70
2021/08/07 05:12:39;;;;;;;9.27;8.37;;;17.40;99.90;;;;;;4927231;28;20682;-70
2021/08/07 05:15:05;;;;;;;9.40;8.47;;;17.40;99.90;;;;;;4928205;28;21209;-70
2021/08/07 05:17:31;;;;;;;9.23;8.40;;;17.40;99.90;;;;;;4930963;28;20714;-70
2021/08/07 05:19:58;;;;;;;9.70;8.90;;;17.40;99.90;;;;;;4932192;28;23561;-70
2021/08/07 05:22:24;;;;;;;9.70;8.70;;;17.40;99.90;;;;;;4928307;28;20594;-69
2021/08/07 05:24:53;;;;;;;9.53;8.53;;;17.50;99.90;;;;;;4933837;28;20628;-69
2021/08/07 05:27:21;;;;;;;9.50;8.53;;;17.50;99.90;;;;;;4935151;29;20202;-69
2021/08/07 05:29:49;;;;;;;11.20;10.03;;;17.50;99.90;;;;;;4935705;29;21126;-70
2021/08/07 05:32:17;;;;;;;8.33;7.63;;;17.60;99.90;;;;;;4931288;28;20658;-70
2021/08/07 05:34:43;;;;;;;10.40;9.57;;;17.60;99.90;;;;;;4935304;29;20631;-70
2021/08/07 05:37:08;;;;;;;9.40;8.50;;;17.60;99.90;;;;;;4939880;28;20639;-70
2021/08/07 05:39:39;;;;;;;9.63;8.83;;;17.60;99.90;;;;;;4934886;28;20207;-70
2021/08/07 05:42:05;;;;;;;10.13;9.43;;;17.60;99.90;;;;;;4934314;28;20701;-70
2021/08/07 05:44:30;;;;;;;10.33;9.10;;;17.60;99.90;;;;;;4934420;28;20627;-70
2021/08/07 05:46:58;;;;;;;10.77;9.57;;;17.70;99.90;;;;;;4936840;29;20199;-70
2021/08/07 05:49:26;;;;;;;8.93;8.23;;;17.70;99.90;;;;;;4936614;28;20204;-70
2021/08/07 05:51:56;;;;;;;9.63;8.80;;;17.70;99.90;;;;;;4935414;28;20650;-71
2021/08/07 05:54:21;;;;;;;10.37;9.47;;;17.90;99.90;;;;;;4941114;29;20699;-71
2021/08/07 05:56:50;;;;;;;10.50;9.57;;;17.90;99.90;;;;;;4937663;28;20624;-70
2021/08/07 05:59:18;;;;;;;10.57;9.47;;;18.00;99.90;;;;;;4943133;28;20338;-70
2021/08/07 06:01:43;;;;;;;9.33;8.53;;;18.00;99.90;;;;;;4940143;28;20686;-70
2021/08/07 06:04:09;;;;;;;10.27;9.37;;;18.10;99.90;;;;;;4939823;28;20677;-71
2021/08/07 06:06:34;;;;;;;10.17;9.27;;;18.00;99.90;;;;;;4941607;28;20747;-71
2021/08/07 06:09:00;;;;;;;9.33;8.53;;;18.00;99.90;;;;;;4938821;28;20251;-70
2021/08/07 06:11:25;;;;;;;9.27;8.47;;;18.00;99.90;;;;;;4943782;28;20180;-71
2021/08/07 06:13:51;;;;;;;9.27;8.40;;;18.10;99.90;;;;;;4933987;28;20203;-71
2021/08/07 06:16:16;;;;;;;9.90;9.10;;;18.10;99.90;;;;;;4930784;28;20691;-71
2021/08/07 06:18:42;;;;;;;9.30;8.50;;;18.20;99.90;;;;;;4942577;28;20203;-71
2021/08/07 06:21:07;;;;;;;8.80;8.10;;;18.20;99.90;;;;;;4937922;28;20214;-71
2021/08/07 06:23:33;;;;;;;9.60;8.80;;;18.30;99.90;;;;;;4939971;28;20221;-71
2021/08/07 06:25:58;;;;;;;9.10;8.30;;;18.30;99.90;;;;;;4936584;28;20271;-71
2021/08/07 06:28:24;;;;;;;8.40;7.70;;;18.30;99.90;;;;;;4941319;28;20772;-71
2021/08/07 06:30:49;;;;;;;9.30;8.50;;;18.30;99.90;;;;;;4939391;28;20199;-71
2021/08/07 06:33:15;;;;;;;8.27;7.63;;;18.40;99.90;;;;;;4939865;28;20361;-71
2021/08/07 06:35:41;;;;;;;8.80;7.93;;;18.60;99.90;;;;;;4941203;28;20692;-71
2021/08/07 06:38:08;;;;;;;9.07;8.37;;;18.60;99.90;;;;;;4941114;28;20239;-71
2021/08/07 06:40:34;;;;;;;8.67;7.87;;;18.60;99.90;;;;;;4939655;28;20622;-72
2021/08/07 06:43:00;;;;;;;8.87;8.07;;;18.70;99.90;;;;;;4937686;28;21392;-71
2021/08/07 06:45:26;;;;;;;7.83;7.13;;;18.70;99.90;;;;;;4942057;28;20630;-71
2021/08/07 06:47:52;;;;;;;9.40;8.60;;;18.70;99.90;;;;;;4942507;28;20309;-71
2021/08/07 06:50:18;;;;;;;9.43;8.53;;;18.70;99.90;;;;;;4942139;28;21166;-71
2021/08/07 06:52:43;;;;;;;8.33;7.53;;;18.70;99.90;;;;;;4936704;28;20314;-71
2021/08/07 06:55:09;;;;;;;9.33;8.40;;;18.60;99.90;;;;;;4936920;28;20659;-71
2021/08/07 06:57:39;;;;;;;8.63;7.67;;;18.70;99.90;;;;;;4942320;28;20507;-72
2021/08/07 07:00:05;;;;;;;8.70;8.00;;;18.70;99.90;;;;;;4935929;28;20620;-71
2021/08/07 07:02:30;;;;;;;8.20;7.47;;;18.70;99.90;;;;;;4936991;28;20758;-71
2021/08/07 07:04:56;;;;;;;7.63;7.03;;;18.70;99.90;;;;;;4933426;28;20686;-71
2021/08/07 07:07:21;;;;;;;7.80;7.00;;;18.80;99.90;;;;;;4934855;28;20382;-72
2021/08/07 07:09:47;;;;;;;7.60;6.77;;;18.90;99.90;;;;;;4945019;28;20212;-71
2021/08/07 07:12:13;;;;;;;7.90;7.20;;;18.90;99.90;;;;;;4938811;28;20220;-71
2021/08/07 07:14:39;;;;;;;7.20;6.60;;;18.80;99.90;;;;;;4937993;28;20283;-71
2021/08/07 07:17:05;;;;;;;7.40;6.80;;;18.90;99.90;;;;;;4934371;28;20631;-72
2021/08/07 07:19:31;;;;;;;6.70;6.10;;;19.00;99.90;;;;;;4936224;28;20654;-72
2021/08/07 07:21:57;;;;;;;6.70;6.20;;;19.00;99.90;;;;;;4931319;28;20579;-72
2021/08/07 07:24:23;;;;;;;5.80;5.20;;;19.00;99.90;;;;;;4939426;29;20192;-72
2021/08/07 07:26:48;;;;;;;6.53;6.03;;;19.10;99.90;;;;;;4950894;28;20623;-75
2021/08/07 07:29:14;;;;;;;6.20;5.70;;;19.10;99.90;;;;;;4937109;28;20219;-75
2021/08/07 07:31:39;;;;;;;5.57;5.17;;;19.10;99.90;;;;;;4931856;28;20284;-74
2021/08/07 07:34:05;;;;;;;5.63;5.20;;;19.20;99.90;;;;;;4937370;28;20401;-75
2021/08/07 07:36:30;;;;;;;5.37;4.93;;;19.20;99.90;;;;;;4935128;28;20195;-75
2021/08/07 07:38:56;;;;;;;7.40;6.10;;;19.20;99.90;;;;;;4936246;28;21009;-75
2021/08/07 07:41:21;;;;;;;6.10;5.50;;;19.30;99.90;;;;;;4938599;28;20695;-74
2021/08/07 07:43:47;;;;;;;5.90;5.30;;;19.30;99.90;;;;;;4943509;28;20338;-74
2021/08/07 07:46:13;;;;;;;6.07;5.57;;;19.30;99.90;;;;;;4937889;28;20227;-75
2021/08/07 07:48:39;;;;;;;6.33;5.83;;;19.40;99.90;;;;;;4933111;28;20279;-71
2021/08/07 07:51:05;;;;;;;5.83;5.33;;;19.40;99.90;;;;;;4940205;28;20625;-71
2021/08/07 07:53:30;;;;;;;6.00;5.60;;;19.40;99.90;;;;;;4937571;28;21093;-71
2021/08/07 07:55:56;;;;;;;6.67;5.40;;;19.50;99.90;;;;;;4933335;28;20206;-71
2021/08/07 07:58:22;;;;;;;5.83;5.33;;;19.50;99.90;;;;;;4932319;28;22522;-71
2021/08/07 08:00:47;;;;;;;7.13;6.43;;;19.60;99.90;;;;;;4944613;28;20194;-71
2021/08/07 08:03:13;;;;;;;6.60;6.00;;;19.70;99.90;;;;;;4933866;28;20239;-71
2021/08/07 08:05:39;;;;;;;6.23;5.57;;;19.80;99.90;;;;;;4936022;28;20196;-71
2021/08/07 08:08:05;;;;;;;6.83;5.90;;;19.90;99.90;;;;;;4933046;28;20322;-71
2021/08/07 08:10:30;;;;;;;5.90;5.30;;;19.90;99.90;;;;;;4930811;29;20195;-71
2021/08/07 08:12:56;;;;;;;6.37;5.50;;;19.90;99.90;;;;;;4937664;28;20643;-71
2021/08/07 08:15:22;;;;;;;6.37;5.70;;;19.90;99.90;;;;;;4935111;29;20204;-72
2021/08/07 08:17:47;;;;;;;5.57;5.07;;;19.80;99.90;;;;;;4939152;28;20270;-71
2021/08/07 08:20:13;;;;;;;8.77;5.20;;;19.90;99.90;;;;;;4944659;28;20210;-71
2021/08/07 08:22:39;;;;;;;5.43;4.93;;;19.90;99.90;;;;;;4934404;28;20235;-71
2021/08/07 08:25:09;;;;;;;6.17;5.57;;;20.00;99.90;;;;;;4934138;29;21004;-71
2021/08/07 08:27:35;;;;;;;6.23;5.30;;;20.10;99.90;;;;;;4939089;28;21166;-71
2021/08/07 08:30:02;;;;;;;7.37;5.13;;;20.10;99.90;;;;;;4932275;29;20623;-71
2021/08/07 08:32:28;;;;;;;5.80;5.20;;;20.20;99.90;;;;;;4930884;28;20251;-72
2021/08/07 08:34:53;;;;;;;6.20;5.60;;;20.40;99.90;;;;;;4933842;28;21266;-72
2021/08/07 08:37:19;;;;;;;5.80;5.30;;;20.60;99.90;;;;;;4932977;28;20706;-72
2021/08/07 08:39:44;;;;;;;4.80;4.40;;;20.70;99.90;;;;;;4934174;28;20590;-72
2021/08/07 08:42:10;;;;;;;5.90;5.37;;;20.80;99.90;;;;;;4936598;28;20227;-72
2021/08/07 08:44:35;;;;;;;4.57;4.27;;;20.90;99.90;;;;;;4933667;29;20528;-72
2021/08/07 08:47:01;;;;;;;4.37;3.97;;;20.90;99.90;;;;;;4941739;29;20199;-73
2021/08/07 08:49:29;;;;;;;4.53;4.13;;;21.00;99.90;;;;;;4927766;28;21003;-72
2021/08/07 08:51:59;;;;;;;3.53;3.30;;;21.10;99.90;;;;;;4933878;28;20227;-72
2021/08/07 08:54:24;;;;;;;3.57;3.30;;;21.10;99.90;;;;;;4938104;28;20623;-72
2021/08/07 08:56:50;;;;;;;3.93;2.83;;;21.20;99.90;;;;;;4933778;29;20623;-72
2021/08/07 08:59:20;;;;;;;3.20;2.90;;;21.20;99.90;;;;;;4934213;28;20766;-73
2021/08/07 09:01:47;;;;;;;4.87;3.00;;;21.30;99.90;;;;;;4928588;28;20662;-73
2021/08/07 09:04:13;;;;;;;3.37;3.07;;;21.30;99.90;;;;;;4932908;28;20665;-73
2021/08/07 09:06:38;;;;;;;3.37;3.03;;;21.30;99.90;;;;;;4936749;28;21379;-73
2021/08/07 09:09:09;;;;;;;3.80;3.40;;;21.30;99.90;;;;;;4936489;28;20206;-73
2021/08/07 09:11:45;;;;;;;3.67;3.30;;;21.40;99.90;;;;;;4936409;28;20242;-73
2021/08/07 09:14:18;;;;;;;3.20;3.00;;;21.40;99.90;;;;;;4937624;29;20616;-73
2021/08/07 09:16:59;;;;;;;2.90;2.70;;;21.40;99.90;;;;;;4936390;29;20623;-73
2021/08/07 09:19:26;;;;;;;2.73;2.53;;;21.40;99.90;;;;;;4937769;28;20651;-73
2021/08/07 09:22:10;;;;;;;3.40;2.90;;;21.30;99.90;;;;;;4938290;28;20647;-72
2021/08/07 09:24:59;;;;;;;2.80;2.60;;;21.40;99.90;;;;;;4940759;28;20623;-73
2021/08/07 09:27:36;;;;;;;2.80;2.60;;;21.30;99.90;;;;;;4937005;28;20723;-72
2021/08/07 09:30:25;;;;;;;2.90;2.70;;;21.40;99.90;;;;;;4951795;28;20635;-72
2021/08/07 09:32:58;;;;;;;3.10;2.90;;;21.40;99.90;;;;;;4931705;28;20632;-72
2021/08/07 09:35:29;;;;;;;3.97;3.67;;;21.30;99.90;;;;;;4932440;29;20642;-73
2021/08/07 09:38:18;;;;;;;3.10;2.80;;;21.30;99.90;;;;;;4932047;28;20723;-73
2021/08/07 09:40:58;;;;;;;2.87;2.57;;;21.40;99.90;;;;;;4934798;29;20674;-73
2021/08/07 09:43:46;;;;;;;2.67;2.47;;;21.40;99.90;;;;;;4940041;28;20730;-73
2021/08/07 09:46:22;;;;;;;3.50;3.20;;;21.50;99.90;;;;;;4937627;29;20747;-73
2021/08/07 09:48:55;;;;;;;3.00;2.80;;;21.50;99.90;;;;;;4932660;28;20682;-73
2021/08/07 09:51:33;;;;;;;3.87;3.60;;;21.50;99.90;;;;;;4930860;28;20606;-74
2021/08/07 09:54:05;;;;;;;4.43;4.03;;;21.60;99.90;;;;;;4932341;29;21062;-73
2021/08/07 09:56:54;;;;;;;3.30;3.10;;;21.70;99.90;;;;;;4933201;29;20616;-73
2021/08/07 09:59:26;;;;;;;3.43;3.23;;;21.70;99.90;;;;;;4928812;28;23408;-73
2021/08/07 10:01:54;;;;;;;3.50;3.20;;;21.60;99.90;;;;;;4932423;28;20636;-73
2021/08/07 10:04:21;;;;;;;4.20;3.50;;;21.60;99.90;;;;;;4929658;28;20619;-73
2021/08/07 10:06:48;;;;;;;3.50;3.20;;;21.60;99.90;;;;;;4929226;29;20694;-73
2021/08/07 10:09:14;;;;;;;3.40;3.10;;;21.60;99.90;;;;;;4932942;28;20662;-73
2021/08/07 10:12:00;;;;;;;3.73;3.47;;;21.60;99.90;;;;;;4930469;28;20635;-73
2021/08/07 10:14:25;;;;;;;4.57;3.87;;;21.60;99.90;;;;;;4929355;29;20744;-73
2021/08/07 10:16:51;;;;;;;3.10;2.90;;;21.60;99.90;;;;;;4929889;29;20641;-73
2021/08/07 10:19:17;;;;;;;3.83;3.53;;;21.80;99.90;;;;;;4926955;28;20212;-73
2021/08/07 10:21:49;;;;;;;4.90;3.37;;;21.70;99.90;;;;;;4928045;28;20298;-73
2021/08/07 10:24:16;;;;;;;3.20;2.97;;;21.80;99.90;;;;;;4931901;29;20188;-73
2021/08/07 10:26:45;;;;;;;3.50;3.20;;;21.90;99.90;;;;;;4931206;28;20671;-72
2021/08/07 10:29:13;;;;;;;3.73;3.50;;;22.00;99.90;;;;;;4943834;28;20651;-73
2021/08/07 10:31:39;;;;;;;3.37;3.07;;;22.10;99.90;;;;;;4935206;28;21368;-72
2021/08/07 10:34:08;;;;;;;4.13;3.50;;;22.10;99.90;;;;;;4928441;28;20632;-73
2021/08/07 10:36:34;;;;;;;5.93;3.70;;;22.20;99.90;;;;;;4931715;29;20362;-72
2021/08/07 10:39:02;;;;;;;3.27;3.07;;;22.20;99.90;;;;;;4929761;28;20666;-73
2021/08/07 10:41:32;;;;;;;3.87;3.57;;;22.30;99.90;;;;;;4928604;28;20714;-72
2021/08/07 10:44:00;;;;;;;5.43;3.20;;;22.30;99.90;;;;;;4936436;29;20651;-73
2021/08/07 10:46:27;;;;;;;3.23;3.03;;;22.40;99.90;;;;;;4938687;29;20697;-73
2021/08/07 10:48:53;;;;;;;3.80;3.50;;;22.50;99.90;;;;;;4935658;28;21302;-73
2021/08/07 10:51:22;;;;;;;6.07;5.67;;;22.60;99.90;;;;;;4934373;28;20651;-73
2021/08/07 10:53:55;;;;;;;7.40;4.20;;;22.60;99.90;;;;;;4933725;29;20634;-73
2021/08/07 10:56:43;;;;;;;4.20;3.80;;;22.60;99.90;;;;;;4933993;29;20681;-73
2021/08/07 10:59:12;;;;;;;4.33;4.00;;;22.70;99.90;;;;;;4933137;28;20669;-72
2021/08/07 11:01:46;;;;;;;4.13;3.60;;;22.70;99.90;;;;;;4934426;28;20713;-73
2021/08/07 11:04:21;;;;;;;3.67;3.37;;;22.70;99.90;;;;;;4937378;28;20630;-72
2021/08/07 11:06:49;;;;;;;3.70;3.40;;;22.80;99.90;;;;;;4936720;28;21126;-74
2021/08/07 11:09:26;;;;;;;3.47;3.20;;;22.80;99.90;;;;;;4944547;28;20651;-75
2021/08/07 11:12:07;;;;;;;4.23;3.80;;;22.80;99.90;;;;;;4933808;28;20735;-74
2021/08/07 11:14:42;;;;;;;3.27;3.03;;;22.80;99.90;;;;;;4931311;28;20627;-75
2021/08/07 11:17:11;;;;;;;3.60;3.30;;;22.90;99.90;;;;;;4932475;29;20621;-75
2021/08/07 11:19:50;;;;;;;3.23;3.03;;;22.80;99.90;;;;;;4933562;28;21350;-75
2021/08/07 11:22:17;;;;;;;4.17;3.87;;;22.70;99.90;;;;;;4936335;28;20939;-75
2021/08/07 11:24:49;;;;;;;4.10;3.43;;;22.70;99.90;;;;;;4939816;29;20622;-75
2021/08/07 11:27:16;;;;;;;3.73;3.43;;;22.60;99.90;;;;;;4938351;28;20639;-75
2021/08/07 11:30:19;;;;;;;3.17;2.97;;;22.60;99.90;;;;;;4940862;28;20658;-74
2021/08/07 11:33:06;;;;;;;3.77;3.40;;;22.50;99.90;;;;;;4935839;28;20722;-74
2021/08/07 11:38:15;;;;;;;3.60;3.30;;;22.60;99.90;;;;;;4937597;29;20996;-74
2021/08/07 11:40:55;;;;;;;3.77;3.43;;;22.70;99.90;;;;;;4936599;28;20200;-74
2021/08/07 11:43:43;;;;;;;3.67;3.40;;;22.80;99.90;;;;;;4935977;28;21180;-73
2021/08/07 11:46:17;;;;;;;3.27;3.07;;;22.90;99.90;;;;;;4939043;29;20598;-73
2021/08/07 11:48:49;;;;;;;3.63;3.33;;;23.10;99.90;;;;;;4937531;28;20639;-73
2021/08/07 11:51:23;;;;;;;4.40;3.50;;;23.40;99.90;;;;;;4936792;28;20636;-72
2021/08/07 11:53:49;;;;;;;4.37;3.40;;;23.60;99.90;;;;;;4936971;29;21610;-73
2021/08/07 11:56:19;;;;;;;3.90;3.17;;;23.80;99.90;;;;;;4937377;28;20628;-73
2021/08/07 11:58:49;;;;;;;3.00;2.80;;;23.80;99.90;;;;;;4938283;28;20230;-72
2021/08/07 12:01:16;;;;;;;3.03;2.83;;;23.80;99.90;;;;;;4934698;28;21173;-72
2021/08/07 12:03:46;;;;;;;3.40;3.10;;;23.80;99.90;;;;;;4936770;28;21248;-72
2021/08/07 12:06:13;;;;;;;3.40;3.10;;;23.80;99.90;;;;;;4936028;28;20608;-72
2021/08/07 12:08:39;;;;;;;4.30;2.83;;;23.80;99.90;;;;;;4936469;28;21218;-72
2021/08/07 12:11:11;;;;;;;3.27;3.07;;;23.70;99.90;;;;;;4941233;28;20650;-72
2021/08/07 12:13:39;;;;;;;4.40;4.00;;;23.70;99.90;;;;;;4934358;28;20290;-72
2021/08/07 12:16:08;;;;;;;4.20;3.90;;;23.60;99.90;;;;;;4936255;28;20722;-72
2021/08/07 12:18:53;;;;;;;3.80;3.50;;;23.50;99.90;;;;;;4931688;28;21292;-72
2021/08/07 12:21:38;;;;;;;4.17;3.87;;;23.40;99.90;;;;;;4933834;28;20629;-72
2021/08/07 12:24:20;;;;;;;3.90;3.63;;;23.30;99.90;;;;;;4930967;28;20677;-73
2021/08/07 12:26:57;;;;;;;4.13;3.80;;;23.10;99.90;;;;;;4932400;28;20580;-73
2021/08/07 12:29:25;;;;;;;6.10;5.00;;;23.00;99.90;;;;;;4931078;28;20668;-72
2021/08/07 12:31:56;;;;;;;4.73;4.43;;;22.90;99.90;;;;;;4931770;28;21097;-73
2021/08/07 12:34:28;;;;;;;4.63;4.30;;;22.80;99.90;;;;;;4932300;28;21791;-73
2021/08/07 12:37:08;;;;;;;5.07;4.67;;;22.80;99.90;;;;;;4935997;28;20670;-74
2021/08/07 12:39:43;;;;;;;4.90;4.50;;;22.70;99.90;;;;;;4939062;28;22002;-73
2021/08/07 12:42:10;;;;;;;5.27;4.77;;;22.50;99.90;;;;;;4942107;28;20658;-72
2021/08/07 12:44:37;;;;;;;5.40;4.93;;;22.40;99.90;;;;;;4937818;28;20615;-72
2021/08/07 12:47:03;;;;;;;6.50;5.43;;;22.30;99.90;;;;;;4937823;28;20646;-72
2021/08/07 12:49:44;;;;;;;5.27;4.50;;;22.20;99.90;;;;;;4937189;28;20636;-72
2021/08/07 12:52:12;;;;;;;5.37;4.97;;;22.00;99.90;;;;;;4935900;28;20644;-72
2021/08/07 12:54:38;;;;;;;5.97;5.47;;;21.90;99.90;;;;;;4938470;28;20710;-72
2021/08/07 12:57:23;;;;;;;5.10;4.60;;;21.80;99.90;;;;;;4938044;28;20671;-72